createdAt,value
2022-12-01T00:02:18.916Z,41.4
2022-12-01T00:07:19.028Z,38.9
2022-12-01T00:12:18.861Z,36.1
2022-12-01T00:17:18.861Z,41.8
2022-12-01T00:22:18.860Z,37.7
2022-12-01T00:27:18.872Z,38.9
2022-12-01T00:32:18.865Z,37.1
2022-12-01T00:37:18.867Z,40.3
2022-12-01T00:42:18.871Z,42.5
2022-12-01T00:47:18.896Z,39.5
2022-12-01T00:52:18.869Z,39.6
2022-12-01T00:57:19.177Z,40.3
2022-12-01T01:02:19.027Z,42.2
2022-12-01T01:07:18.984Z,42.4
2022-12-01T01:12:18.900Z,44.1
2022-12-01T01:17:18.891Z,37.0
2022-12-01T01:22:18.893Z,41.3
2022-12-01T01:27:18.897Z,42.3
2022-12-01T01:32:18.897Z,47.2
2022-12-01T01:37:18.899Z,45.1
2022-12-01T01:42:18.902Z,47.5
2022-12-01T01:47:18.911Z,44.8
2022-12-01T01:52:18.916Z,46.4
2022-12-01T01:57:18.912Z,48.8
2022-12-01T02:02:19.008Z,46.7
2022-12-01T02:07:19.135Z,42.5
2022-12-01T02:12:18.927Z,39.1
2022-12-01T02:17:18.920Z,41.1
2022-12-01T02:22:18.924Z,43.6
2022-12-01T02:27:18.921Z,43.0
2022-12-01T02:32:18.927Z,40.9
2022-12-01T02:37:18.931Z,42.3
2022-12-01T02:42:18.936Z,39.2
2022-12-01T02:47:18.931Z,37.9
2022-12-01T02:52:18.935Z,38.2
2022-12-01T02:57:18.935Z,43.4
2022-12-01T03:02:19.002Z,41.2
2022-12-01T03:07:19.073Z,40.3
2022-12-01T03:12:18.943Z,38.1
2022-12-01T03:17:19.000Z,36.7
2022-12-01T03:22:18.958Z,42.5
2022-12-01T03:27:18.951Z,39.4
2022-12-01T03:32:18.952Z,39.4
2022-12-01T03:37:18.958Z,33.5
2022-12-01T03:42:18.956Z,38.2
2022-12-01T03:47:18.988Z,37.2
2022-12-01T03:52:18.977Z,39.4
2022-12-01T03:57:18.976Z,32.7
2022-12-01T04:02:18.974Z,40.8
2022-12-01T04:07:18.980Z,38.9
2022-12-01T04:12:18.979Z,36.6
2022-12-01T04:17:18.979Z,36.2
2022-12-01T04:22:18.985Z,34.8
2022-12-01T04:27:18.987Z,32.1
2022-12-01T04:32:18.991Z,34.1
2022-12-01T04:37:19.034Z,32.5
2022-12-01T04:42:19.003Z,29.8
2022-12-01T04:47:18.997Z,34.1
2022-12-01T04:52:18.994Z,35.3
2022-12-01T04:57:19.001Z,32.1
2022-12-01T05:02:19.030Z,29.4
2022-12-01T05:07:19.004Z,34.8
2022-12-01T05:12:19.003Z,35.7
2022-12-01T05:17:19.012Z,30.7
2022-12-01T05:22:31.491Z,30.8
2022-12-01T05:27:19.021Z,35.3
2022-12-01T05:32:19.012Z,31.8
2022-12-01T05:37:19.013Z,31.4
2022-12-01T05:42:19.025Z,35.8
2022-12-01T05:47:19.257Z,34.8
2022-12-01T05:52:19.026Z,34.8
2022-12-01T05:57:19.029Z,38.5
2022-12-01T06:02:19.132Z,41.9
2022-12-01T06:07:19.040Z,37.2
2022-12-01T06:12:19.049Z,37.2
2022-12-01T06:17:19.054Z,37.4
2022-12-01T06:22:19.047Z,40.6
2022-12-01T06:27:19.055Z,38.2
2022-12-01T06:32:19.048Z,37.5
2022-12-01T06:37:19.051Z,37.6
2022-12-01T06:42:19.051Z,37.8
2022-12-01T06:47:19.060Z,39.1
2022-12-01T06:52:19.059Z,36.3
2022-12-01T06:57:19.055Z,38.0
2022-12-01T07:02:19.130Z,37.4
2022-12-01T07:07:19.102Z,38.2
2022-12-01T07:12:19.065Z,37.0
2022-12-01T07:17:19.101Z,41.1
2022-12-01T07:22:19.076Z,41.6
2022-12-01T07:27:19.075Z,42.5
2022-12-01T07:32:19.085Z,36.9
2022-12-01T07:37:19.078Z,37.6
2022-12-01T07:42:19.076Z,36.1
2022-12-01T07:47:19.085Z,35.3
2022-12-01T07:52:19.081Z,35.1
2022-12-01T07:57:19.091Z,37.4
2022-12-01T08:02:19.223Z,37.3
2022-12-01T08:07:19.100Z,33.3
2022-12-01T08:12:19.097Z,36.3
2022-12-01T08:17:19.109Z,38.3
2022-12-01T08:22:19.216Z,37.7
2022-12-01T08:27:19.108Z,38.1
2022-12-01T08:32:19.099Z,43.4
2022-12-01T08:37:19.122Z,40.0
2022-12-01T08:42:19.114Z,41.5
2022-12-01T08:47:19.256Z,40.0
2022-12-01T08:52:19.116Z,40.3
2022-12-01T08:57:19.111Z,43.8
2022-12-01T09:02:19.301Z,44.1
2022-12-01T09:07:23.006Z,42.9
2022-12-01T09:12:19.128Z,40.2
2022-12-01T09:17:19.135Z,42.2
2022-12-01T09:22:19.129Z,49.9
2022-12-01T09:27:19.146Z,47.7
2022-12-01T09:32:19.135Z,42.9
2022-12-01T09:37:19.141Z,47.4
2022-12-01T09:42:19.135Z,50.1
2022-12-01T09:47:19.401Z,47.9
2022-12-01T09:52:19.147Z,47.9
2022-12-01T09:57:19.142Z,47.9
2022-12-01T10:02:19.266Z,52.7
2022-12-01T10:07:19.154Z,43.0
2022-12-01T10:12:19.175Z,46.5
2022-12-01T10:17:19.191Z,41.3
2022-12-01T10:22:19.158Z,42.6
2022-12-01T10:27:19.258Z,39.8
2022-12-01T10:32:19.171Z,40.8
2022-12-01T10:37:19.214Z,41.2
2022-12-01T10:42:19.182Z,38.4
2022-12-01T10:47:19.181Z,35.7
2022-12-01T10:52:19.271Z,36.4
2022-12-01T10:57:19.191Z,35.4
2022-12-01T11:02:19.396Z,38.6
2022-12-01T11:07:19.193Z,37.2
2022-12-01T11:12:19.204Z,35.3
2022-12-01T11:17:19.213Z,39.5
2022-12-01T11:22:19.202Z,36.4
2022-12-01T11:27:19.205Z,38.1
2022-12-01T11:32:19.261Z,37.9
2022-12-01T11:37:19.211Z,38.2
2022-12-01T11:42:19.213Z,42.7
2022-12-01T11:47:23.314Z,34.7
2022-12-01T11:52:19.215Z,37.1
2022-12-01T11:57:33.737Z,35.5
2022-12-01T12:02:19.299Z,35.6
2022-12-01T12:07:19.234Z,34.2
2022-12-01T12:12:19.228Z,35.2
2022-12-01T12:17:19.268Z,36.3
2022-12-01T12:22:19.236Z,34.1
2022-12-01T12:27:19.239Z,36.0
2022-12-01T12:32:19.251Z,39.0
2022-12-01T12:37:19.314Z,35.0
2022-12-01T12:42:19.243Z,33.3
2022-12-01T12:47:19.252Z,31.9
2022-12-01T12:52:19.247Z,37.7
2022-12-01T12:57:19.267Z,33.7
2022-12-01T13:02:19.288Z,33.9
2022-12-01T13:07:19.264Z,33.8
2022-12-01T13:17:19.254Z,35.4
2022-12-01T13:22:19.267Z,32.8
2022-12-01T13:27:19.273Z,31.6
2022-12-01T13:32:19.269Z,37.3
2022-12-01T13:37:19.277Z,34.2
2022-12-01T13:42:19.277Z,33.5
2022-12-01T13:47:19.282Z,31.5
2022-12-01T13:52:19.298Z,32.6
2022-12-01T13:57:19.279Z,34.3
2022-12-01T14:02:19.321Z,31.1
2022-12-01T14:12:19.290Z,32.8
2022-12-01T14:17:19.408Z,30.9
2022-12-01T14:22:19.313Z,33.4
2022-12-01T14:27:19.296Z,33.8
2022-12-01T14:32:19.300Z,33.8
2022-12-01T14:37:19.306Z,32.9
2022-12-01T14:42:19.302Z,33.7
2022-12-01T14:47:19.308Z,33.5
2022-12-01T14:52:19.302Z,36.7
2022-12-01T14:57:19.311Z,39.1
2022-12-01T15:02:19.399Z,36.5
2022-12-01T15:07:19.339Z,35.5
2022-12-01T15:12:19.323Z,36.9
2022-12-01T15:17:19.321Z,38.9
2022-12-01T15:22:19.330Z,37.9
2022-12-01T15:27:19.335Z,38.2
2022-12-01T15:32:19.356Z,34.4
2022-12-01T15:37:19.331Z,37.8
2022-12-01T15:42:19.332Z,34.3
2022-12-01T15:47:19.338Z,36.3
2022-12-01T15:52:19.374Z,38.9
2022-12-01T15:57:19.356Z,36.3
2022-12-01T16:02:19.491Z,33.5
2022-12-01T16:07:19.350Z,36.2
2022-12-01T16:12:19.348Z,36.8
2022-12-01T16:17:19.357Z,39.8
2022-12-01T16:22:19.356Z,36.3
2022-12-01T16:27:19.355Z,35.8
2022-12-01T16:32:21.035Z,37.7
2022-12-01T16:37:19.363Z,39.6
2022-12-01T16:42:19.364Z,37.9
2022-12-01T16:52:43.726Z,38.3
2022-12-01T16:57:19.370Z,35.9
2022-12-01T17:02:19.549Z,35.9
2022-12-01T17:07:19.379Z,36.2
2022-12-01T17:12:19.385Z,34.7
2022-12-01T17:17:19.381Z,36.0
2022-12-01T17:22:19.613Z,36.3
2022-12-01T17:27:19.394Z,38.7
2022-12-01T17:32:19.417Z,37.8
2022-12-01T17:37:21.344Z,41.4
2022-12-01T17:42:19.403Z,36.5
2022-12-01T17:47:19.414Z,35.8
2022-12-01T17:52:22.121Z,35.3
2022-12-01T17:57:19.456Z,30.6
2022-12-01T18:02:19.467Z,35.8
2022-12-01T18:07:19.441Z,34.5
2022-12-01T18:12:19.623Z,35.1
2022-12-01T18:17:19.438Z,32.8
2022-12-01T18:22:19.435Z,30.9
2022-12-01T18:27:19.457Z,34.4
2022-12-01T18:32:19.425Z,34.9
2022-12-01T18:37:19.440Z,31.0
2022-12-01T18:42:19.427Z,33.8
2022-12-01T18:47:19.437Z,34.9
2022-12-01T18:52:19.615Z,32.6
2022-12-01T18:57:19.438Z,31.7
2022-12-01T19:02:19.510Z,31.9
2022-12-01T19:07:19.439Z,31.3
2022-12-01T19:12:19.454Z,34.0
2022-12-01T19:17:19.502Z,33.3
2022-12-01T19:22:19.442Z,32.5
2022-12-01T19:27:19.457Z,32.2
2022-12-01T19:32:19.450Z,36.6
2022-12-01T19:37:19.454Z,37.8
2022-12-01T19:42:19.460Z,32.5
2022-12-01T19:47:22.462Z,34.5
2022-12-01T19:52:19.453Z,35.9
2022-12-01T19:57:19.458Z,35.4
2022-12-01T20:02:19.808Z,34.2
2022-12-01T20:07:19.470Z,34.5
2022-12-01T20:12:19.572Z,38.1
2022-12-01T20:17:19.473Z,38.9
2022-12-01T20:22:19.473Z,41.8
2022-12-01T20:27:19.477Z,42.2
2022-12-01T20:32:23.502Z,45.0
2022-12-01T20:37:19.501Z,44.4
2022-12-01T20:42:19.484Z,49.8
2022-12-01T20:47:19.492Z,46.4
2022-12-01T20:52:19.488Z,49.1
2022-12-01T20:57:19.495Z,53.2
2022-12-01T21:02:19.581Z,49.2
2022-12-01T21:07:19.496Z,49.5
2022-12-01T21:12:19.501Z,49.4
2022-12-01T21:17:19.534Z,57.2
2022-12-01T21:22:19.501Z,53.9
2022-12-01T21:27:19.505Z,56.1
2022-12-01T21:32:19.507Z,59.3
2022-12-01T21:37:19.516Z,57.6
2022-12-01T21:42:19.516Z,53.9
2022-12-01T21:47:19.540Z,56.5
2022-12-01T21:52:19.527Z,56.3
2022-12-01T21:57:19.599Z,57.7
2022-12-01T22:02:19.575Z,61.3
2022-12-01T22:07:19.543Z,59.7
2022-12-01T22:12:19.527Z,61.4
2022-12-01T22:17:19.531Z,65.9
2022-12-01T22:22:19.534Z,67.6
2022-12-01T22:27:19.539Z,64.6
2022-12-01T22:32:19.534Z,61.8
2022-12-01T22:37:19.532Z,63.9
2022-12-01T22:42:19.541Z,61.6
2022-12-01T22:47:19.546Z,59.5
2022-12-01T22:52:19.547Z,56.4
2022-12-01T22:57:19.555Z,55.7
2022-12-01T23:02:21.207Z,55.6
2022-12-01T23:07:19.652Z,58.8
2022-12-01T23:12:19.556Z,52.8
2022-12-01T23:17:19.549Z,55.2
2022-12-01T23:22:19.599Z,50.8
2022-12-01T23:27:19.558Z,51.3
2022-12-01T23:32:19.560Z,50.9
2022-12-01T23:37:19.565Z,50.9
2022-12-01T23:42:19.569Z,49.7
2022-12-01T23:47:19.576Z,47.5
2022-12-01T23:52:19.565Z,50.0
2022-12-01T23:57:19.573Z,52.4
